Time;durP1;ratioP1;P1;durP2;ratioP2;P2;SDS_P1;SDS_P2;PMS_P1;PMS_P2;Temp;Humidity;BMP_temperature;BMP_pressure;BME280_temperature;BME280_humidity;BME280_pressure;Samples;Min_cycle;Max_cycle;Signal;HPM_P1;HPM_P2
2023/09/06 00:01:25;;;;;;;6.63;4.38;;;14.20;99.90;;;;;;4192616;28;20109;-65
2023/09/06 00:03:27;;;;;;;9.35;4.20;;;14.20;99.90;;;;;;4193502;28;20044;-64
2023/09/06 00:05:29;;;;;;;6.93;4.00;;;14.10;99.90;;;;;;4192968;28;20062;-65
2023/09/06 00:07:30;;;;;;;5.68;3.92;;;14.10;99.90;;;;;;4192955;28;20102;-62
2023/09/06 00:09:31;;;;;;;5.30;4.32;;;14.10;99.90;;;;;;4193097;28;20036;-64
2023/09/06 00:11:33;;;;;;;6.53;4.90;;;14.20;99.90;;;;;;4193192;28;20044;-63
2023/09/06 00:13:35;;;;;;;6.03;4.32;;;14.10;99.90;;;;;;4192342;28;20094;-63
2023/09/06 00:15:36;;;;;;;6.78;4.53;;;14.10;99.90;;;;;;4193964;28;20078;-64
2023/09/06 00:17:38;;;;;;;7.40;4.93;;;14.00;99.90;;;;;;4192972;28;20070;-63
2023/09/06 00:19:39;;;;;;;5.75;4.80;;;14.00;99.90;;;;;;4194011;28;20062;-62
2023/09/06 00:21:43;;;;;;;6.65;5.03;;;14.00;99.90;;;;;;4192884;28;20431;-60
2023/09/06 00:23:44;;;;;;;6.15;4.18;;;13.90;99.90;;;;;;4193022;28;20036;-64
2023/09/06 00:25:45;;;;;;;7.53;4.35;;;13.90;99.90;;;;;;4193521;28;20437;-62
2023/09/06 00:27:46;;;;;;;6.88;4.05;;;13.80;99.90;;;;;;4191852;28;20086;-63
2023/09/06 00:29:47;;;;;;;4.60;3.85;;;13.80;99.90;;;;;;4192978;28;20041;-63
2023/09/06 00:31:48;;;;;;;7.32;4.35;;;13.80;99.90;;;;;;4191909;28;20407;-63
2023/09/06 00:33:49;;;;;;;6.07;4.28;;;13.70;99.90;;;;;;4193301;28;20041;-64
2023/09/06 00:35:50;;;;;;;6.35;4.05;;;13.70;99.90;;;;;;4191755;28;20082;-62
2023/09/06 00:37:52;;;;;;;6.85;3.63;;;13.70;99.90;;;;;;4193218;28;20036;-63
2023/09/06 00:39:53;;;;;;;7.45;4.35;;;13.70;99.90;;;;;;4174323;28;20363;-63
2023/09/06 00:41:55;;;;;;;5.35;3.83;;;13.70;99.90;;;;;;4193941;28;20094;-64
2023/09/06 00:43:56;;;;;;;5.40;3.97;;;13.70;99.90;;;;;;4193175;28;20025;-62
2023/09/06 00:45:59;;;;;;;8.50;3.78;;;13.70;99.90;;;;;;4194179;28;20013;-64
2023/09/06 00:48:01;;;;;;;5.10;3.78;;;13.60;99.90;;;;;;4192014;28;20162;-62
2023/09/06 00:50:03;;;;;;;5.43;3.60;;;13.50;99.90;;;;;;4192413;28;20041;-63
2023/09/06 00:52:04;;;;;;;4.78;3.63;;;13.50;99.90;;;;;;4192703;28;20066;-62
2023/09/06 00:54:06;;;;;;;8.55;4.35;;;13.40;99.90;;;;;;4193409;28;20086;-64
2023/09/06 00:56:08;;;;;;;4.87;3.40;;;13.30;99.90;;;;;;4192498;28;20032;-62
2023/09/06 00:58:15;;;;;;;4.10;3.35;;;13.30;99.90;;;;;;4192570;28;20589;-64
2023/09/06 01:00:22;;;;;;;6.47;3.42;;;13.20;99.90;;;;;;4193172;28;20044;-64
2023/09/06 01:02:24;;;;;;;5.72;3.15;;;13.30;99.90;;;;;;4192220;28;20106;-63
2023/09/06 01:04:25;;;;;;;3.77;2.77;;;13.30;99.90;;;;;;4192612;28;20500;-63
2023/09/06 01:06:30;;;;;;;5.93;3.45;;;13.30;99.90;;;;;;4192733;28;20036;-64
2023/09/06 01:08:37;;;;;;;4.45;3.10;;;13.30;99.90;;;;;;4193893;28;20464;-62
2023/09/06 01:10:38;;;;;;;5.38;3.25;;;13.30;99.90;;;;;;4191949;28;20108;-63
2023/09/06 01:12:39;;;;;;;5.23;3.27;;;13.30;99.90;;;;;;4195495;28;20049;-63
2023/09/06 01:14:40;;;;;;;4.75;3.78;;;13.20;99.90;;;;;;4195922;28;20082;-62
2023/09/06 01:16:48;;;;;;;6.40;3.20;;;13.20;99.90;;;;;;4196153;28;20021;-63
2023/09/06 01:18:49;;;;;;;4.43;2.80;;;13.10;99.90;;;;;;4194346;28;20090;-62
2023/09/06 01:20:57;;;;;;;3.23;2.60;;;13.10;99.90;;;;;;4196547;28;20427;-63
2023/09/06 01:23:25;;;;;;;3.40;2.33;;;13.10;99.90;;;;;;4195469;28;20045;-63
2023/09/06 01:25:26;;;;;;;5.00;2.50;;;13.10;99.90;;;;;;4195460;28;20454;-61
2023/09/06 01:27:28;;;;;;;3.83;2.47;;;13.10;99.90;;;;;;4195161;28;20037;-62
2023/09/06 01:29:29;;;;;;;4.97;2.80;;;13.10;99.90;;;;;;4195632;28;20117;-63
2023/09/06 01:31:30;;;;;;;3.97;2.53;;;13.10;99.90;;;;;;4193930;28;20036;-64
2023/09/06 01:33:31;;;;;;;5.87;2.90;;;13.00;99.90;;;;;;4194966;28;20037;-63
2023/09/06 01:35:32;;;;;;;4.27;2.80;;;13.00;99.90;;;;;;4195268;28;20078;-64
2023/09/06 01:37:35;;;;;;;6.23;2.97;;;13.00;99.90;;;;;;4196123;28;20032;-63
2023/09/06 01:39:36;;;;;;;5.20;3.00;;;13.00;99.90;;;;;;4195230;28;20376;-64
2023/09/06 01:41:37;;;;;;;5.37;3.00;;;13.00;99.90;;;;;;4195230;28;20101;-64
2023/09/06 01:43:38;;;;;;;5.50;2.77;;;12.90;99.90;;;;;;4195733;28;20189;-63
2023/09/06 01:45:50;;;;;;;5.60;3.33;;;12.90;99.90;;;;;;4194728;28;20431;-64
2023/09/06 01:47:52;;;;;;;4.17;2.97;;;12.80;99.90;;;;;;4194225;28;20423;-63
2023/09/06 01:49:54;;;;;;;5.47;3.40;;;12.70;99.90;;;;;;4193894;28;20052;-63
2023/09/06 01:51:57;;;;;;;3.63;3.10;;;12.70;99.90;;;;;;4195012;28;20048;-63
2023/09/06 01:54:01;;;;;;;4.83;3.57;;;12.70;99.90;;;;;;4194436;28;20090;-64
2023/09/06 01:56:02;;;;;;;5.10;3.57;;;12.60;99.90;;;;;;4177893;28;20052;-61
2023/09/06 01:58:04;;;;;;;5.90;4.07;;;12.60;99.90;;;;;;4193860;28;20048;-63
2023/09/06 02:00:18;;;;;;;6.63;3.40;;;12.60;99.90;;;;;;4194826;28;20056;-64
2023/09/06 02:02:19;;;;;;;4.57;2.87;;;12.60;99.90;;;;;;4192966;28;20060;-64
2023/09/06 02:04:21;;;;;;;5.50;3.37;;;12.60;99.90;;;;;;4195252;28;20098;-65
2023/09/06 02:06:22;;;;;;;10.23;3.00;;;12.60;99.90;;;;;;4194175;28;20036;-63
2023/09/06 02:08:23;;;;;;;5.00;3.43;;;12.60;99.90;;;;;;4195102;28;20462;-63
2023/09/06 02:10:25;;;;;;;3.90;3.07;;;12.60;99.90;;;;;;4194561;28;20032;-62
2023/09/06 02:12:26;;;;;;;3.47;2.87;;;12.50;99.90;;;;;;4195676;28;20024;-64
2023/09/06 02:14:27;;;;;;;5.60;3.03;;;12.40;99.90;;;;;;4194983;28;20028;-63
2023/09/06 02:16:30;;;;;;;3.77;2.73;;;12.40;99.90;;;;;;4195063;28;20036;-64
2023/09/06 02:18:31;;;;;;;6.30;3.77;;;12.40;99.90;;;;;;4194898;28;20375;-63
2023/09/06 02:20:32;;;;;;;3.37;2.80;;;12.30;99.90;;;;;;4194301;28;20074;-65
2023/09/06 02:22:34;;;;;;;4.33;3.00;;;12.40;99.90;;;;;;4176263;28;20147;-62
2023/09/06 02:24:35;;;;;;;4.63;2.90;;;12.30;99.90;;;;;;4193197;28;20477;-64
2023/09/06 02:26:37;;;;;;;9.97;2.60;;;12.30;99.90;;;;;;4194369;28;20041;-64
2023/09/06 02:28:38;;;;;;;5.30;3.43;;;12.30;99.90;;;;;;4179035;28;20464;-61
2023/09/06 02:30:40;;;;;;;4.77;3.20;;;12.20;99.90;;;;;;4178470;28;20025;-65
2023/09/06 02:32:41;;;;;;;6.90;2.70;;;12.20;99.90;;;;;;4191224;28;20094;-64
2023/09/06 02:34:42;;;;;;;8.80;2.87;;;12.20;99.90;;;;;;4194528;28;20086;-63
2023/09/06 02:36:43;;;;;;;4.43;2.87;;;12.20;99.90;;;;;;4192846;28;20105;-61
2023/09/06 02:38:44;;;;;;;3.73;2.80;;;12.30;99.90;;;;;;4194514;28;20081;-66
2023/09/06 02:40:45;;;;;;;3.37;2.80;;;12.20;99.90;;;;;;4192430;28;20534;-63
2023/09/06 02:42:51;;;;;;;4.53;3.10;;;12.00;99.90;;;;;;4194588;28;20048;-65
2023/09/06 02:44:53;;;;;;;6.03;3.20;;;12.00;99.90;;;;;;4194080;28;20048;-62
2023/09/06 02:46:54;;;;;;;4.27;2.77;;;11.90;99.90;;;;;;4195028;28;20468;-63
2023/09/06 02:48:58;;;;;;;3.60;2.93;;;11.80;99.90;;;;;;4193375;28;20094;-63
2023/09/06 02:50:59;;;;;;;5.40;2.70;;;11.70;99.90;;;;;;4194323;28;20078;-65
2023/09/06 02:53:03;;;;;;;4.50;2.90;;;11.60;99.90;;;;;;4194268;28;20462;-64
2023/09/06 02:55:05;;;;;;;6.23;3.50;;;11.50;99.90;;;;;;4194176;28;20310;-65
2023/09/06 02:57:06;;;;;;;6.37;3.33;;;11.40;99.90;;;;;;4193518;28;20151;-65
2023/09/06 02:59:07;;;;;;;4.87;3.90;;;11.40;99.90;;;;;;4193836;28;20132;-64
2023/09/06 03:01:19;;;;;;;9.90;4.00;;;11.30;99.90;;;;;;4193855;28;20098;-65
2023/09/06 03:03:20;;;;;;;4.20;3.23;;;11.30;99.90;;;;;;4192662;28;20114;-65
2023/09/06 03:05:22;;;;;;;4.70;3.67;;;11.30;99.90;;;;;;4193889;28;20098;-64
2023/09/06 03:07:24;;;;;;;7.03;3.33;;;11.30;99.90;;;;;;4193103;28;20060;-63
2023/09/06 03:09:28;;;;;;;8.50;4.17;;;11.20;99.90;;;;;;4193731;28;20922;-65
2023/09/06 03:11:30;;;;;;;6.40;3.30;;;11.20;99.90;;;;;;4192954;28;20109;-64
2023/09/06 03:13:31;;;;;;;6.70;3.23;;;11.20;99.90;;;;;;4194802;28;20461;-65
2023/09/06 03:15:32;;;;;;;7.47;3.80;;;11.20;99.90;;;;;;4192508;28;20045;-65
2023/09/06 03:17:33;;;;;;;5.63;3.80;;;11.10;99.90;;;;;;4193232;28;20044;-62
2023/09/06 03:19:40;;;;;;;6.80;4.63;;;11.10;99.90;;;;;;4192588;28;20048;-65
2023/09/06 03:21:41;;;;;;;7.53;3.80;;;11.10;99.90;;;;;;4193838;28;20041;-65
2023/09/06 03:23:44;;;;;;;7.13;3.97;;;11.10;99.90;;;;;;4193030;28;20049;-65
2023/09/06 03:25:54;;;;;;;8.73;4.33;;;11.00;99.90;;;;;;4175174;28;20397;-65
2023/09/06 03:28:00;;;;;;;9.18;4.60;;;11.00;99.90;;;;;;4174368;28;20033;-64
2023/09/06 03:30:01;;;;;;;7.47;4.33;;;11.00;99.90;;;;;;4192920;28;20040;-62
2023/09/06 03:32:04;;;;;;;8.37;4.13;;;11.00;99.90;;;;;;4193094;28;20036;-65
2023/09/06 03:34:05;;;;;;;7.87;4.30;;;11.00;99.90;;;;;;4192136;28;20040;-65
2023/09/06 03:36:09;;;;;;;7.60;4.20;;;11.00;99.90;;;;;;4192458;28;20106;-65
2023/09/06 03:38:10;;;;;;;11.33;4.53;;;11.10;99.90;;;;;;4192018;28;20062;-64
2023/09/06 03:42:34;;;;;;;9.82;4.50;;;11.10;99.90;;;;;;4193326;28;20048;-65
2023/09/06 03:44:38;;;;;;;9.33;4.40;;;11.10;99.90;;;;;;4194552;28;20086;-64
2023/09/06 03:46:41;;;;;;;11.87;5.13;;;11.10;99.90;;;;;;4192512;28;20028;-64
2023/09/06 03:48:43;;;;;;;11.30;4.87;;;11.10;99.90;;;;;;4193850;28;20048;-65
2023/09/06 03:50:45;;;;;;;9.97;4.60;;;11.00;99.90;;;;;;4192614;28;20036;-66
2023/09/06 03:52:47;;;;;;;7.70;5.10;;;11.00;99.90;;;;;;4194526;28;20392;-66
2023/09/06 03:54:50;;;;;;;10.83;5.83;;;10.90;99.90;;;;;;4192248;28;20083;-66
2023/09/06 03:56:53;;;;;;;31.47;14.10;;;10.90;99.90;;;;;;4192232;28;20546;-64
2023/09/06 03:58:54;;;;;;;11.70;6.17;;;11.00;99.90;;;;;;4193177;28;20033;-64
2023/09/06 04:00:55;;;;;;;11.33;5.67;;;11.10;99.90;;;;;;4193438;28;20040;-64
2023/09/06 04:02:57;;;;;;;11.13;5.37;;;11.10;99.90;;;;;;4192973;28;20438;-65
2023/09/06 04:05:00;;;;;;;18.43;6.27;;;11.10;99.90;;;;;;4193344;28;20193;-66
2023/09/06 04:07:02;;;;;;;12.27;6.30;;;11.10;99.90;;;;;;4192281;28;20459;-66
2023/09/06 04:09:05;;;;;;;14.57;6.13;;;11.10;99.90;;;;;;4193189;28;20040;-66
2023/09/06 04:11:09;;;;;;;9.03;5.90;;;11.20;99.90;;;;;;4192596;28;20020;-66
2023/09/06 04:13:11;;;;;;;9.33;5.60;;;11.40;99.90;;;;;;4193238;28;20484;-67
2023/09/06 04:15:13;;;;;;;10.03;5.70;;;11.70;99.90;;;;;;4193389;28;20017;-66
2023/09/06 04:17:15;;;;;;;10.33;6.00;;;11.90;99.90;;;;;;4192139;28;20041;-67
2023/09/06 04:19:17;;;;;;;11.17;6.40;;;12.10;99.90;;;;;;4192983;28;20102;-65
2023/09/06 04:21:22;;;;;;;13.30;6.00;;;12.40;99.90;;;;;;4191990;28;20044;-65
2023/09/06 04:23:25;;;;;;;12.27;5.80;;;12.70;99.90;;;;;;4193336;28;20131;-65
2023/09/06 04:25:27;;;;;;;12.53;5.60;;;13.20;99.90;;;;;;4192703;28;20085;-66
2023/09/06 04:27:28;;;;;;;15.90;6.20;;;13.80;99.90;;;;;;4192595;28;20063;-62
2023/09/06 04:29:29;;;;;;;8.80;5.07;;;14.40;99.90;;;;;;4192436;28;20148;-65
2023/09/06 04:31:32;;;;;;;13.00;5.47;;;14.90;99.90;;;;;;4192993;28;20118;-64
2023/09/06 04:33:33;;;;;;;12.63;5.60;;;15.40;99.90;;;;;;4191403;28;20485;-65
2023/09/06 04:35:38;;;;;;;11.88;5.35;;;15.80;99.90;;;;;;4192198;28;20044;-65
2023/09/06 04:37:40;;;;;;;8.80;4.97;;;16.30;99.90;;;;;;4189879;28;20403;-66
2023/09/06 04:39:43;;;;;;;8.35;5.18;;;16.70;99.90;;;;;;4193231;28;20070;-66
2023/09/06 04:41:44;;;;;;;14.65;5.03;;;17.10;99.90;;;;;;4192217;28;20024;-65
2023/09/06 04:43:45;;;;;;;7.30;4.43;;;17.50;99.90;;;;;;4192606;28;20149;-68
2023/09/06 04:45:47;;;;;;;9.40;4.50;;;17.70;99.90;;;;;;4193647;28;20032;-65
2023/09/06 04:47:49;;;;;;;7.43;4.70;;;17.60;99.90;;;;;;4195938;28;20037;-65
2023/09/06 04:49:50;;;;;;;9.43;4.60;;;17.50;99.90;;;;;;4196426;28;20013;-65
2023/09/06 04:51:52;;;;;;;8.43;5.05;;;17.50;99.90;;;;;;4195784;28;20476;-65
2023/09/06 04:53:54;;;;;;;12.82;5.15;;;17.60;99.90;;;;;;4196172;28;20054;-66
2023/09/06 04:55:55;;;;;;;9.10;4.63;;;17.90;99.90;;;;;;4195325;28;20106;-70
2023/09/06 04:57:56;;;;;;;9.95;5.07;;;18.50;99.90;;;;;;4195443;28;20049;-67
2023/09/06 04:59:58;;;;;;;10.63;4.63;;;19.10;99.90;;;;;;4194568;28;20037;-64
2023/09/06 05:01:59;;;;;;;8.52;4.57;;;19.40;99.90;;;;;;4196695;28;20024;-65
2023/09/06 05:04:00;;;;;;;11.73;3.90;;;19.40;99.90;;;;;;4195315;28;20048;-63
2023/09/06 05:06:02;;;;;;;11.20;3.78;;;19.70;99.90;;;;;;4196717;28;20028;-65
2023/09/06 05:08:04;;;;;;;14.15;4.55;;;19.90;99.90;;;;;;4195627;28;20086;-66
2023/09/06 05:10:05;;;;;;;8.32;4.32;;;20.50;99.90;;;;;;4195414;28;20566;-65
2023/09/06 05:12:07;;;;;;;7.88;4.28;;;20.70;99.90;;;;;;4177106;28;20036;-66
2023/09/06 05:14:09;;;;;;;6.07;3.75;;;20.70;99.90;;;;;;4196748;28;20024;-67
2023/09/06 05:16:10;;;;;;;10.60;4.88;;;21.00;99.90;;;;;;4195513;28;20028;-65
2023/09/06 05:18:11;;;;;;;8.60;4.13;;;21.10;99.90;;;;;;4195817;28;20036;-66
2023/09/06 05:20:30;;;;;;;9.23;5.07;;;21.20;99.90;;;;;;4195563;28;20477;-68
2023/09/06 05:22:31;;;;;;;9.80;5.25;;;21.00;99.90;;;;;;4195979;28;20024;-67
2023/09/06 05:24:32;;;;;;;6.68;5.70;;;20.90;99.90;;;;;;4195632;28;20037;-66
2023/09/06 05:26:36;;;;;;;13.85;11.43;;;21.00;99.90;;;;;;4195687;28;20044;-68
2023/09/06 05:28:37;;;;;;;16.50;14.35;;;21.30;99.90;;;;;;4195098;28;20103;-67
2023/09/06 05:30:46;;;;;;;15.98;13.95;;;21.10;99.90;;;;;;4194665;28;20435;-67
2023/09/06 05:32:47;;;;;;;17.77;13.32;;;20.90;99.90;;;;;;4195811;28;20036;-65
2023/09/06 05:34:49;;;;;;;14.35;12.82;;;20.60;99.90;;;;;;4194999;28;20554;-65
2023/09/06 05:36:51;;;;;;;15.57;11.73;;;20.20;99.90;;;;;;4195318;28;20040;-65
2023/09/06 05:38:52;;;;;;;16.38;12.10;;;20.20;99.90;;;;;;4194383;28;20102;-63
2023/09/06 05:40:53;;;;;;;13.77;12.00;;;20.30;99.90;;;;;;4195406;28;20459;-66
2023/09/06 05:42:54;;;;;;;15.27;11.80;;;20.40;99.90;;;;;;4195010;28;20041;-66
2023/09/06 05:44:56;;;;;;;15.88;10.27;;;20.90;99.90;;;;;;4196448;28;20110;-66
2023/09/06 05:46:57;;;;;;;14.57;10.55;;;20.90;99.90;;;;;;4194801;28;20025;-66
2023/09/06 05:48:58;;;;;;;17.33;10.57;;;21.10;99.90;;;;;;4196034;28;20134;-66
2023/09/06 05:50:59;;;;;;;20.88;12.43;;;20.70;99.90;;;;;;4194235;28;20142;-66
2023/09/06 05:53:01;;;;;;;20.77;12.85;;;20.20;99.90;;;;;;4195025;28;20583;-66
2023/09/06 05:55:02;;;;;;;26.77;12.65;;;20.00;99.90;;;;;;4194808;28;20012;-66
2023/09/06 05:57:05;;;;;;;17.85;12.02;;;19.90;99.90;;;;;;4194412;28;20040;-66
2023/09/06 05:59:06;;;;;;;19.95;11.80;;;20.00;99.90;;;;;;4195033;28;20037;-67
2023/09/06 06:01:08;;;;;;;25.98;12.38;;;19.80;99.90;;;;;;4194088;28;20041;-67
2023/09/06 06:03:10;;;;;;;16.90;11.18;;;19.90;99.90;;;;;;4193753;28;20102;-67
2023/09/06 06:05:12;;;;;;;19.98;9.93;;;19.80;99.90;;;;;;4193958;28;20045;-67
2023/09/06 06:07:16;;;;;;;15.02;8.85;;;19.60;99.90;;;;;;4195647;28;20032;-67
2023/09/06 06:09:21;;;;;;;14.23;5.72;;;19.40;99.90;;;;;;4194592;28;20415;-66
2023/09/06 06:11:22;;;;;;;13.85;5.35;;;19.20;99.90;;;;;;4195126;28;20467;-63
2023/09/06 06:13:23;;;;;;;10.13;5.18;;;18.80;99.90;;;;;;4194457;28;20723;-64
2023/09/06 06:15:25;;;;;;;7.57;3.75;;;18.60;99.90;;;;;;4195918;28;20772;-64
2023/09/06 06:17:27;;;;;;;13.07;4.95;;;18.20;99.90;;;;;;4193655;28;20122;-63
2023/09/06 06:19:28;;;;;;;9.55;4.68;;;18.30;99.90;;;;;;4194963;28;20146;-67
2023/09/06 06:21:30;;;;;;;9.45;3.78;;;18.20;99.90;;;;;;4193263;28;20090;-61
2023/09/06 06:23:32;;;;;;;8.93;3.70;;;18.20;99.90;;;;;;4195456;28;20099;-64
2023/09/06 06:25:33;;;;;;;5.72;3.22;;;18.00;99.90;;;;;;4194360;28;20480;-64
2023/09/06 06:27:35;;;;;;;10.18;4.45;;;18.30;99.90;;;;;;4195196;28;20032;-65
2023/09/06 06:29:36;;;;;;;9.70;4.40;;;18.30;99.90;;;;;;4194312;28;20017;-66
2023/09/06 06:31:37;;;;;;;6.80;3.60;;;18.30;99.90;;;;;;4194079;28;20174;-66
2023/09/06 06:33:39;;;;;;;5.18;4.28;;;18.30;99.90;;;;;;4194304;28;20494;-67
2023/09/06 06:35:40;;;;;;;6.07;4.00;;;18.50;99.90;;;;;;4194092;28;20020;-67
2023/09/06 06:37:41;;;;;;;12.57;3.90;;;18.50;99.90;;;;;;4194075;28;20036;-66
2023/09/06 06:39:42;;;;;;;5.95;3.38;;;18.50;99.90;;;;;;4192920;28;20492;-65
2023/09/06 06:41:44;;;;;;;5.63;3.50;;;18.50;99.90;;;;;;4195024;28;20020;-63
2023/09/06 06:43:46;;;;;;;3.80;3.35;;;18.50;99.90;;;;;;4193457;28;20049;-64
2023/09/06 06:45:55;;;;;;;5.22;3.42;;;18.30;99.90;;;;;;4195410;28;20444;-67
2023/09/06 06:47:56;;;;;;;5.55;3.00;;;18.20;99.90;;;;;;4193931;28;20101;-64
2023/09/06 06:50:02;;;;;;;4.38;3.00;;;17.90;99.90;;;;;;4194228;28;20090;-65
2023/09/06 06:52:04;;;;;;;4.93;2.80;;;17.80;99.90;;;;;;4193187;28;20090;-67
2023/09/06 06:54:10;;;;;;;5.10;2.65;;;18.10;99.90;;;;;;4194693;28;20485;-66
2023/09/06 06:56:11;;;;;;;4.63;2.80;;;18.40;99.90;;;;;;4193518;28;20040;-62
2023/09/06 06:58:14;;;;;;;2.80;2.33;;;18.70;99.90;;;;;;4194720;28;20041;-66
2023/09/06 07:00:17;;;;;;;4.25;2.67;;;18.70;99.90;;;;;;4192837;28;20044;-63
2023/09/06 07:02:18;;;;;;;5.03;2.60;;;18.70;99.90;;;;;;4176223;28;20048;-64
2023/09/06 07:04:19;;;;;;;4.15;2.47;;;18.70;99.90;;;;;;4175336;28;20075;-62
2023/09/06 07:06:22;;;;;;;4.85;2.53;;;18.70;99.90;;;;;;4194379;28;20029;-66
2023/09/06 07:08:25;;;;;;;2.97;2.28;;;18.60;99.90;;;;;;4193818;28;20020;-65
2023/09/06 07:10:26;;;;;;;3.30;2.60;;;18.60;99.90;;;;;;4193550;28;20427;-66
2023/09/06 07:12:27;;;;;;;4.03;2.50;;;18.70;99.90;;;;;;4193492;28;20037;-67
2023/09/06 07:14:28;;;;;;;4.95;2.53;;;18.80;99.90;;;;;;4193661;28;20391;-65
2023/09/06 07:16:31;;;;;;;5.60;2.55;;;19.00;99.90;;;;;;4194151;28;20481;-63
2023/09/06 07:18:32;;;;;;;4.68;2.30;;;19.00;99.90;;;;;;4192952;28;20103;-65
2023/09/06 07:20:33;;;;;;;3.75;2.40;;;19.10;99.90;;;;;;4193805;28;20036;-62
2023/09/06 07:22:34;;;;;;;6.13;2.85;;;19.00;99.90;;;;;;4191965;28;20094;-63
2023/09/06 07:24:35;;;;;;;3.78;2.55;;;19.00;99.90;;;;;;4193165;28;20071;-63
2023/09/06 07:26:36;;;;;;;3.75;2.33;;;18.80;99.90;;;;;;4192172;28;20384;-63
2023/09/06 07:28:40;;;;;;;7.93;4.15;;;18.80;99.90;;;;;;4193973;28;20090;-65
2023/09/06 07:30:42;;;;;;;5.32;2.03;;;18.80;99.90;;;;;;4193203;28;20033;-66
2023/09/06 07:32:43;;;;;;;5.25;2.38;;;18.80;99.90;;;;;;4194104;28;20036;-64
2023/09/06 07:34:44;;;;;;;7.03;4.60;;;19.00;99.90;;;;;;4192916;28;20420;-64
2023/09/06 07:36:45;;;;;;;6.38;3.63;;;19.20;99.90;;;;;;4193711;28;20513;-66
2023/09/06 07:38:46;;;;;;;3.80;2.42;;;19.50;99.90;;;;;;4193303;28;20032;-64
2023/09/06 07:41:05;;;;;;;6.80;2.75;;;19.70;99.90;;;;;;4193585;28;20066;-66
2023/09/06 07:43:06;;;;;;;7.57;4.72;;;19.60;99.90;;;;;;4192807;28;20470;-65
2023/09/06 07:45:08;;;;;;;11.23;8.00;;;19.70;99.90;;;;;;4193488;28;20455;-64
2023/09/06 07:47:09;;;;;;;4.20;3.00;;;20.00;99.90;;;;;;4193245;28;20081;-65
2023/09/06 07:49:10;;;;;;;3.67;2.50;;;20.00;99.90;;;;;;4192574;28;20047;-66
2023/09/06 07:51:12;;;;;;;2.95;2.35;;;20.10;99.90;;;;;;4193747;28;20506;-65
2023/09/06 07:53:13;;;;;;;8.13;2.83;;;20.30;99.90;;;;;;4191842;28;20052;-65
2023/09/06 07:55:14;;;;;;;5.43;2.15;;;20.40;99.90;;;;;;4193285;28;20044;-66
2023/09/06 07:57:15;;;;;;;2.33;1.80;;;20.40;99.90;;;;;;4191773;28;20032;-65
2023/09/06 07:59:22;;;;;;;3.38;2.13;;;20.40;99.90;;;;;;4193695;28;20427;-66
2023/09/06 08:01:23;;;;;;;4.32;2.10;;;20.30;99.90;;;;;;4191848;28;20087;-64
2023/09/06 08:03:25;;;;;;;5.03;2.17;;;20.20;99.90;;;;;;4193670;28;20066;-65
2023/09/06 08:05:26;;;;;;;3.00;2.08;;;20.30;99.90;;;;;;4192695;28;20452;-66
2023/09/06 08:07:28;;;;;;;24.40;14.75;;;20.50;99.90;;;;;;4193354;28;20048;-63
2023/09/06 08:09:29;;;;;;;4.50;2.97;;;20.50;99.90;;;;;;4192688;28;20090;-65
2023/09/06 08:11:30;;;;;;;5.85;3.33;;;20.80;99.90;;;;;;4193680;28;20454;-66
2023/09/06 08:13:31;;;;;;;3.33;1.92;;;21.00;99.90;;;;;;4193028;28;20090;-66
2023/09/06 08:15:33;;;;;;;3.45;2.10;;;20.90;99.90;;;;;;4193641;28;20040;-65
2023/09/06 08:17:35;;;;;;;4.05;2.25;;;20.90;99.90;;;;;;4193160;28;20021;-64
2023/09/06 08:19:36;;;;;;;4.05;2.00;;;21.00;99.90;;;;;;4192217;28;20066;-65
2023/09/06 08:21:37;;;;;;;2.15;1.52;;;21.10;99.90;;;;;;4195795;28;20446;-62
2023/09/06 08:23:38;;;;;;;5.15;1.60;;;21.40;99.90;;;;;;4177854;28;20083;-65
2023/09/06 08:25:39;;;;;;;2.63;1.75;;;21.60;99.90;;;;;;4196654;28;20334;-63
2023/09/06 08:27:41;;;;;;;2.75;1.98;;;21.80;99.90;;;;;;4195423;28;20045;-65
2023/09/06 08:29:42;;;;;;;4.95;2.25;;;21.80;99.90;;;;;;4196722;28;20040;-65
2023/09/06 08:31:43;;;;;;;3.55;1.60;;;21.90;99.90;;;;;;4195783;28;20108;-65
2023/09/06 08:33:44;;;;;;;1.55;1.40;;;22.10;99.70;;;;;;4197190;28;20086;-65
2023/09/06 08:35:45;;;;;;;5.90;1.95;;;22.20;98.70;;;;;;4195038;28;20037;-66
2023/09/06 08:37:47;;;;;;;2.45;1.70;;;22.20;98.50;;;;;;4196934;28;20090;-67
2023/09/06 08:39:48;;;;;;;1.98;1.48;;;22.20;97.80;;;;;;4195810;28;20021;-66
2023/09/06 08:41:49;;;;;;;3.97;1.60;;;22.10;97.50;;;;;;4196159;28;20041;-67
2023/09/06 08:43:52;;;;;;;4.03;1.58;;;22.10;97.50;;;;;;4195614;28;20032;-65
2023/09/06 08:45:53;;;;;;;2.40;1.73;;;22.10;97.00;;;;;;4196465;28;20427;-65
2023/09/06 08:47:55;;;;;;;1.85;1.38;;;22.00;97.10;;;;;;4195832;28;20113;-65
2023/09/06 08:49:57;;;;;;;3.05;1.70;;;22.10;97.20;;;;;;4194970;28;20493;-64
2023/09/06 08:52:00;;;;;;;2.42;1.52;;;22.20;96.80;;;;;;4196509;28;20028;-63
2023/09/06 08:54:06;;;;;;;2.17;1.33;;;22.20;96.60;;;;;;4195764;28;20078;-66
2023/09/06 08:56:08;;;;;;;3.10;1.42;;;22.10;96.50;;;;;;4195813;28;20105;-66
2023/09/06 08:58:10;;;;;;;2.13;1.70;;;22.20;96.50;;;;;;4195087;28;20037;-66
2023/09/06 09:00:13;;;;;;;4.47;1.50;;;22.30;96.50;;;;;;4196025;28;20102;-64
2023/09/06 09:02:16;;;;;;;1.50;1.33;;;22.40;96.50;;;;;;4194804;28;20086;-62
2023/09/06 09:04:18;;;;;;;1.83;1.42;;;22.40;96.30;;;;;;4196137;28;20078;-61
2023/09/06 09:06:20;;;;;;;2.00;1.65;;;22.50;96.20;;;;;;4195232;28;20033;-63
2023/09/06 09:08:21;;;;;;;2.70;1.80;;;22.50;96.00;;;;;;4195508;28;20094;-62
2023/09/06 09:10:26;;;;;;;2.00;1.73;;;22.70;96.00;;;;;;4195034;28;20040;-65
2023/09/06 09:12:28;;;;;;;3.20;1.40;;;22.90;95.70;;;;;;4196120;28;20033;-65
2023/09/06 09:14:30;;;;;;;3.50;1.77;;;23.00;95.60;;;;;;4195045;28;20025;-65
2023/09/06 09:16:31;;;;;;;3.08;1.55;;;23.00;95.50;;;;;;4196449;28;20469;-66
2023/09/06 09:18:34;;;;;;;2.92;1.60;;;23.20;95.60;;;;;;4194968;28;20520;-65
2023/09/06 09:20:41;;;;;;;3.63;1.70;;;23.20;95.30;;;;;;4195208;28;20182;-66
2023/09/06 09:22:43;;;;;;;2.88;1.52;;;23.20;95.10;;;;;;4195302;28;20037;-66
2023/09/06 09:24:44;;;;;;;3.40;1.75;;;23.20;95.20;;;;;;4195024;28;20493;-62
2023/09/06 09:26:45;;;;;;;4.10;1.73;;;23.20;95.00;;;;;;4195517;28;20021;-66
2023/09/06 09:28:47;;;;;;;4.88;1.80;;;23.00;95.00;;;;;;4195055;28;20070;-63
2023/09/06 09:30:49;;;;;;;2.33;1.70;;;22.90;94.90;;;;;;4195085;28;20040;-65
2023/09/06 09:32:57;;;;;;;2.80;1.77;;;23.00;94.90;;;;;;4193425;28;20498;-65
2023/09/06 09:34:59;;;;;;;3.50;1.92;;;23.10;94.30;;;;;;4195065;28;20090;-64
2023/09/06 09:37:05;;;;;;;3.20;1.70;;;23.20;94.30;;;;;;4194325;28;20368;-61
2023/09/06 09:39:07;;;;;;;5.75;1.83;;;22.90;94.20;;;;;;4195185;28;20097;-62
2023/09/06 09:41:09;;;;;;;2.55;2.10;;;22.90;94.20;;;;;;4194721;28;20033;-65
2023/09/06 09:43:10;;;;;;;3.40;1.55;;;22.80;94.20;;;;;;4195290;28;20493;-64
2023/09/06 09:45:11;;;;;;;2.50;1.80;;;22.80;94.10;;;;;;4193809;28;20056;-65
2023/09/06 09:47:14;;;;;;;6.47;2.08;;;22.90;93.90;;;;;;4196046;28;20350;-65
2023/09/06 09:49:20;;;;;;;2.80;1.80;;;22.80;93.90;;;;;;4193621;28;20090;-65
2023/09/06 09:51:21;;;;;;;4.57;2.03;;;22.90;93.80;;;;;;4194749;28;20150;-64
2023/09/06 09:53:23;;;;;;;3.10;2.20;;;22.90;93.80;;;;;;4193547;28;20032;-64
2023/09/06 09:55:31;;;;;;;5.70;2.15;;;23.00;93.60;;;;;;4195187;28;20032;-65
2023/09/06 09:57:34;;;;;;;3.38;2.00;;;23.20;93.60;;;;;;4194218;28;20072;-65
2023/09/06 09:59:37;;;;;;;2.20;1.60;;;23.30;93.20;;;;;;4195315;28;20375;-65
2023/09/06 10:01:39;;;;;;;4.65;2.20;;;23.30;92.90;;;;;;4194709;28;20024;-64
2023/09/06 10:03:42;;;;;;;4.13;2.05;;;23.20;92.80;;;;;;4194578;28;20098;-64
2023/09/06 10:05:44;;;;;;;4.47;2.08;;;23.40;92.90;;;;;;4194152;28;20040;-65
2023/09/06 10:07:48;;;;;;;5.10;1.98;;;23.40;92.70;;;;;;4194030;28;20089;-66
2023/09/06 10:09:50;;;;;;;2.33;1.88;;;23.40;92.70;;;;;;4194668;28;20040;-64
2023/09/06 10:11:51;;;;;;;2.47;2.00;;;23.40;92.60;;;;;;4193698;28;21640;-64
2023/09/06 10:13:53;;;;;;;3.78;1.95;;;23.20;92.50;;;;;;4195153;28;20373;-65
2023/09/06 10:15:56;;;;;;;2.17;1.80;;;23.00;92.30;;;;;;4194039;28;20408;-65
2023/09/06 10:17:58;;;;;;;5.68;1.90;;;23.10;92.60;;;;;;4195031;28;20048;-63
2023/09/06 10:19:59;;;;;;;2.33;1.90;;;23.20;92.60;;;;;;4193629;28;20102;-64
2023/09/06 10:22:02;;;;;;;4.57;1.90;;;23.30;92.70;;;;;;4194487;28;20045;-66
2023/09/06 10:24:15;;;;;;;4.05;2.10;;;23.30;92.60;;;;;;4192917;28;20105;-64
2023/09/06 10:26:27;;;;;;;3.55;1.85;;;23.50;92.70;;;;;;4194136;28;20032;-65
2023/09/06 10:28:32;;;;;;;2.38;1.70;;;23.60;92.30;;;;;;4193248;28;20052;-66
2023/09/06 10:30:51;;;;;;;3.97;1.83;;;23.60;92.30;;;;;;4194873;28;20520;-65
2023/09/06 10:32:52;;;;;;;1.92;1.75;;;23.50;92.20;;;;;;4193814;28;20086;-65
2023/09/06 10:35:21;;;;;;;4.43;2.13;;;23.50;92.30;;;;;;4194884;28;20024;-65
2023/09/06 10:38:01;;;;;;;4.55;1.65;;;23.60;92.20;;;;;;4181571;28;20062;-66
2023/09/06 10:40:02;;;;;;;;;;;23.80;91.80;;;;;;4195426;28;20070;-65